Time;durP1;ratioP1;P1;durP2;ratioP2;P2;SDS_P1;SDS_P2;PMS_P1;PMS_P2;Temp;Humidity;BMP_temperature;BMP_pressure;BME280_temperature;BME280_humidity;BME280_pressure;Samples;Min_cycle;Max_cycle;Signal;HPM_P1;HPM_P2
2022/08/01 00:02:05;;;;;;;3.40;1.95;;;;;;;16.33;88.00;99605.66;4255315;33;35554;-68
2022/08/01 00:04:54;;;;;;;3.55;1.87;;;;;;;16.68;85.41;99602.28;4256763;33;35523;-68
2022/08/01 00:07:40;;;;;;;3.47;1.85;;;;;;;16.97;83.52;99613.03;4262803;33;34103;-69
2022/08/01 00:10:27;;;;;;;5.00;2.15;;;;;;;16.03;88.98;99603.22;4248694;33;34558;-68
2022/08/01 00:13:13;;;;;;;3.00;2.15;;;;;;;15.93;89.66;99611.97;4250172;33;35040;-68
2022/08/01 00:15:59;;;;;;;4.47;1.87;;;;;;;17.12;83.03;99605.91;4262368;33;34486;-68
2022/08/01 00:18:46;;;;;;;2.47;1.60;;;;;;;17.04;82.01;99606.88;4261000;33;35055;-68
2022/08/01 00:21:32;;;;;;;5.20;2.00;;;;;;;17.22;81.82;99607.38;4259377;33;35621;-68
2022/08/01 00:24:18;;;;;;;4.87;1.92;;;;;;;15.72;88.69;99604.63;4261390;33;35507;-68
2022/08/01 00:27:05;;;;;;;3.47;1.80;;;;;;;16.25;87.49;99601.06;4262529;33;36230;-68
2022/08/01 00:29:51;;;;;;;3.42;1.95;;;;;;;15.91;88.58;99603.25;4263169;33;33890;-68
2022/08/01 00:32:57;;;;;;;4.20;1.80;;;;;;;16.80;84.13;99589.25;4263098;33;34306;-68
2022/08/01 00:35:44;;;;;;;3.87;1.83;;;;;;;16.48;85.70;99596.63;4261507;33;34949;-68
2022/08/01 00:38:31;;;;;;;4.22;1.92;;;;;;;16.94;82.54;99588.84;4258435;33;35195;-68
2022/08/01 00:41:17;;;;;;;4.55;2.30;;;;;;;16.17;87.30;99589.81;4260155;33;35592;-68
2022/08/01 00:44:05;;;;;;;4.43;1.83;;;;;;;16.39;85.71;99584.91;4259565;33;35504;-68
2022/08/01 00:46:51;;;;;;;5.05;2.40;;;;;;;16.79;83.25;99582.13;4258129;33;33454;-68
2022/08/01 00:49:37;;;;;;;4.05;2.30;;;;;;;15.92;87.60;99579.97;4260725;33;34937;-68
2022/08/01 00:52:23;;;;;;;4.10;2.47;;;;;;;15.14;92.88;99587.31;4260526;33;35106;-69
2022/08/01 00:55:12;;;;;;;3.72;2.00;;;;;;;15.48;91.55;99590.78;4261811;33;35334;-69
2022/08/01 00:58:00;;;;;;;3.75;2.47;;;;;;;16.33;86.59;99589.06;4257674;33;35958;-69
2022/08/01 01:00:51;;;;;;;4.97;2.25;;;;;;;15.76;89.59;99598.41;4259777;33;34602;-68
2022/08/01 01:03:39;;;;;;;3.72;2.17;;;;;;;15.48;90.91;99596.31;4259901;33;34185;-69
2022/08/01 01:07:04;;;;;;;4.28;2.05;;;;;;;15.92;89.32;99589.06;4256568;33;35274;-69
2022/08/01 01:09:55;;;;;;;2.67;1.90;;;;;;;16.08;87.16;99596.63;4259887;33;35063;-69
2022/08/01 01:12:41;;;;;;;;;;;;;;;16.87;83.14;99594.16;4257830;33;35511;-69
2022/08/01 01:15:45;;;;;;;4.33;2.10;;;;;;;16.32;85.70;99591.03;4264595;33;34686;-69
2022/08/01 01:18:44;;;;;;;2.80;2.00;;;;;;;16.40;85.12;99594.81;4260353;33;34703;-69
2022/08/01 01:21:47;;;;;;;4.00;2.00;;;;;;;16.35;85.54;99603.34;4260726;33;34929;-69
2022/08/01 01:24:45;;;;;;;3.30;2.05;;;;;;;16.62;83.44;99594.28;4247591;33;34539;-69
2022/08/01 01:27:53;;;;;;;5.45;2.00;;;;;;;16.40;85.13;99597.59;4248110;33;34165;-68
2022/08/01 01:30:41;;;;;;;5.07;2.12;;;;;;;15.65;87.43;99600.78;4259873;33;34183;-68
2022/08/01 01:33:31;;;;;;;5.10;2.20;;;;;;;15.71;88.48;99597.50;4250519;33;35665;-69
2022/08/01 01:36:18;;;;;;;4.12;2.25;;;;;;;15.90;87.23;99601.59;4260778;33;35418;-69
2022/08/01 01:39:04;;;;;;;3.90;2.20;;;;;;;16.20;86.23;99593.84;4256181;33;34922;-69
2022/08/01 01:41:51;;;;;;;4.05;2.30;;;;;;;16.45;83.51;99586.28;4257776;33;35507;-68
2022/08/01 01:44:38;;;;;;;3.97;1.85;;;;;;;16.74;83.24;99584.31;4262389;33;35687;-69
2022/08/01 01:47:25;;;;;;;3.25;1.80;;;;;;;16.47;83.11;99581.19;4261156;33;34812;-69
2022/08/01 01:50:13;;;;;;;5.20;2.35;;;;;;;16.60;82.76;99581.94;4254812;33;34290;-69
2022/08/01 01:53:00;;;;;;;4.07;2.20;;;;;;;15.98;86.47;99586.06;4255745;33;35479;-68
2022/08/01 01:55:49;;;;;;;4.50;2.30;;;;;;;16.39;85.31;99582.13;4245711;33;34640;-69
2022/08/01 01:58:38;;;;;;;4.93;2.37;;;;;;;15.81;87.45;99582.41;4257983;33;34592;-68
2022/08/01 02:01:27;;;;;;;4.95;2.42;;;;;;;16.37;84.98;99579.72;4256927;33;34122;-68
2022/08/01 02:04:36;;;;;;;3.00;2.20;;;;;;;16.69;83.56;99581.78;4258817;33;34728;-69
2022/08/01 02:07:25;;;;;;;3.70;2.03;;;;;;;16.41;84.67;99571.53;4243117;33;90372;-68
2022/08/01 02:10:12;;;;;;;4.85;2.62;;;;;;;16.26;85.48;99572.28;4264790;33;35493;-68
2022/08/01 02:13:02;;;;;;;5.82;2.50;;;;;;;16.65;83.71;99570.62;4248930;33;35017;-68
2022/08/01 02:15:49;;;;;;;4.75;2.47;;;;;;;15.18;90.68;99568.91;4259227;33;34699;-68
2022/08/01 02:18:45;;;;;;;3.65;2.50;;;;;;;15.10;92.72;99569.81;4258960;33;36572;-68
2022/08/01 02:21:39;;;;;;;5.05;2.55;;;;;;;14.97;92.80;99571.78;4259566;33;35736;-68
2022/08/01 02:24:56;;;;;;;4.87;2.40;;;;;;;15.99;87.92;99555.31;4254030;33;33849;-68
2022/08/01 02:27:54;;;;;;;3.65;2.37;;;;;;;16.26;85.17;99559.28;4262490;33;34709;-69
2022/08/01 02:30:46;;;;;;;5.28;2.58;;;;;;;16.33;85.64;99564.19;4258960;33;34783;-69
2022/08/01 02:33:43;;;;;;;3.62;2.30;;;;;;;15.99;87.25;99552.53;4250277;33;34730;-68
2022/08/01 02:36:33;;;;;;;3.90;2.50;;;;;;;16.80;82.89;99563.56;4263352;33;34263;-69
2022/08/01 02:39:21;;;;;;;6.37;2.85;;;;;;;16.80;82.78;99564.34;4252806;33;34591;-68
2022/08/01 02:42:08;;;;;;;3.42;2.03;;;;;;;17.01;81.25;99568.84;4255946;33;35010;-68
2022/08/01 02:44:56;;;;;;;4.40;2.25;;;;;;;17.15;79.77;99571.97;4261100;33;35600;-69
2022/08/01 02:47:43;;;;;;;3.85;2.42;;;;;;;17.20;79.41;99573.69;4253528;33;35947;-68
2022/08/01 02:50:31;;;;;;;4.95;2.30;;;;;;;16.51;82.51;99570.25;4247813;33;35245;-69
2022/08/01 02:53:19;;;;;;;3.25;2.20;;;;;;;16.36;83.97;99564.31;4253774;33;35061;-69
2022/08/01 02:56:06;;;;;;;3.97;2.60;;;;;;;15.65;87.68;99565.72;4256798;33;34571;-68
2022/08/01 02:58:52;;;;;;;4.07;2.20;;;;;;;14.98;92.66;99562.34;4254028;33;34089;-69
2022/08/01 03:01:43;;;;;;;4.28;2.65;;;;;;;15.66;89.88;99555.47;4250501;33;34715;-69
2022/08/01 03:04:29;;;;;;;4.05;2.22;;;;;;;14.94;92.50;99555.06;4250363;33;35013;-68
2022/08/01 03:07:17;;;;;;;5.50;3.33;;;;;;;14.95;94.51;99551.97;4266232;33;34041;-68
2022/08/01 03:10:05;;;;;;;3.95;2.20;;;;;;;14.07;99.63;99550.38;4251454;33;34218;-69
2022/08/01 03:12:52;;;;;;;4.47;2.53;;;;;;;14.52;96.64;99555.22;4258586;33;35291;-69
2022/08/01 03:15:39;;;;;;;5.75;2.90;;;;;;;15.17;94.83;99548.00;4251925;33;34846;-69
2022/08/01 03:18:27;;;;;;;3.72;2.55;;;;;;;15.49;92.75;99546.25;4257263;33;34694;-69
2022/08/01 03:21:14;;;;;;;5.75;2.75;;;;;;;15.65;90.55;99540.84;4256474;33;35090;-68
2022/08/01 03:24:01;;;;;;;6.57;3.15;;;;;;;15.52;91.40;99545.56;4253204;33;35559;-69
2022/08/01 03:26:48;;;;;;;5.40;2.83;;;;;;;15.94;89.37;99539.00;4252626;33;34994;-68
2022/08/01 03:29:35;;;;;;;4.95;2.47;;;;;;;16.11;88.00;99535.16;4255611;33;35503;-68
2022/08/01 03:32:22;;;;;;;6.05;2.70;;;;;;;15.47;92.06;99537.50;4260080;33;34050;-68
2022/08/01 03:35:09;;;;;;;6.05;2.53;;;;;;;15.95;89.69;99532.28;4249375;33;34600;-68
2022/08/01 03:37:56;;;;;;;5.25;3.00;;;;;;;15.97;90.15;99535.53;4259310;33;36068;-68
2022/08/01 03:41:21;;;;;;;5.40;2.70;;;;;;;15.16;94.51;99538.09;4259178;33;34972;-69
2022/08/01 03:44:14;;;;;;;6.50;3.10;;;;;;;15.77;91.11;99536.47;4246500;33;34273;-68
2022/08/01 03:47:05;;;;;;;6.05;2.90;;;;;;;15.40;93.26;99528.22;4253131;33;35457;-69
2022/08/01 03:49:52;;;;;;;4.60;2.75;;;;;;;15.80;91.52;99536.59;4259087;33;34863;-69
2022/08/01 03:52:39;;;;;;;4.87;3.08;;;;;;;16.07;90.38;99540.53;4255150;33;34674;-69
2022/08/01 03:55:26;;;;;;;7.65;2.87;;;;;;;15.71;91.69;99546.97;4249710;33;34794;-70
2022/08/01 03:58:13;;;;;;;4.55;2.90;;;;;;;16.09;89.99;99546.53;4257851;33;34353;-70
2022/08/01 04:00:59;;;;;;;5.15;2.80;;;;;;;15.22;94.91;99556.03;4252305;33;34927;-70
2022/08/01 04:03:45;;;;;;;3.83;2.33;;;;;;;15.55;94.13;99557.09;4267279;33;35306;-70
2022/08/01 04:06:31;;;;;;;4.68;2.47;;;;;;;15.96;91.21;99548.50;4252677;33;34165;-70
2022/08/01 04:09:18;;;;;;;6.55;3.45;;;;;;;15.81;92.91;99559.50;4264145;33;34615;-70
2022/08/01 04:12:04;;;;;;;4.80;2.92;;;;;;;15.39;95.24;99556.97;4258409;33;35908;-70
2022/08/01 04:14:58;;;;;;;8.85;2.83;;;;;;;15.48;95.21;99571.44;4258351;33;36717;-70
2022/08/01 04:17:44;;;;;;;3.87;2.62;;;;;;;15.90;92.94;99571.22;4259710;33;34233;-70
2022/08/01 04:20:30;;;;;;;3.83;2.67;;;;;;;16.11;92.42;99563.59;4261258;33;34367;-70
2022/08/01 04:23:20;;;;;;;5.62;2.67;;;;;;;16.45;90.18;99569.69;4262615;33;34954;-70
2022/08/01 04:26:07;;;;;;;3.97;2.90;;;;;;;16.06;92.54;99571.31;4252745;33;35582;-69
2022/08/01 04:28:54;;;;;;;5.60;3.08;;;;;;;15.62;95.10;99576.63;4259060;33;35033;-70
2022/08/01 04:31:44;;;;;;;7.37;3.05;;;;;;;15.74;94.73;99574.69;4238839;33;36924;-70
2022/08/01 04:34:31;;;;;;;5.57;2.90;;;;;;;15.86;94.17;99568.34;4247354;33;34685;-70
2022/08/01 04:37:18;;;;;;;6.07;2.95;;;;;;;16.24;93.04;99572.63;4265663;33;33737;-70
2022/08/01 04:40:06;;;;;;;6.05;3.00;;;;;;;16.32;91.88;99570.88;4256339;33;33388;-70
2022/08/01 04:42:52;;;;;;;5.37;2.72;;;;;;;16.47;91.17;99567.34;4267127;33;35366;-70
2022/08/01 04:45:39;;;;;;;6.93;3.05;;;;;;;16.40;91.50;99561.63;4265579;33;35951;-70
2022/08/01 04:48:26;;;;;;;4.15;3.05;;;;;;;16.09;92.90;99559.56;4259230;33;34799;-69
2022/08/01 04:51:15;;;;;;;7.03;3.12;;;;;;;16.10;94.32;99564.72;4256829;33;35033;-70
2022/08/01 04:54:01;;;;;;;5.35;2.80;;;;;;;16.12;94.01;99569.91;4260314;33;35402;-70
2022/08/01 04:56:48;;;;;;;5.43;3.30;;;;;;;16.04;95.02;99566.13;4266764;33;34827;-70
2022/08/01 04:59:41;;;;;;;6.25;2.78;;;;;;;16.57;92.79;99566.84;4244289;33;34598;-70
2022/08/01 05:02:28;;;;;;;5.00;2.72;;;;;;;16.52;93.58;99572.63;4251731;33;34168;-70
2022/08/01 05:05:15;;;;;;;5.50;2.75;;;;;;;16.58;92.81;99568.47;4259969;33;34607;-70
2022/08/01 05:08:01;;;;;;;4.53;2.55;;;;;;;17.11;90.12;99570.28;4263135;33;35061;-70
2022/08/01 05:10:47;;;;;;;4.97;3.20;;;;;;;17.11;89.77;99570.28;4260357;33;34433;-70
2022/08/01 05:13:34;;;;;;;6.72;2.90;;;;;;;17.21;89.14;99578.03;4260719;33;35122;-69
2022/08/01 05:16:20;;;;;;;5.75;2.90;;;;;;;17.37;88.91;99567.78;4262641;33;34641;-70
2022/08/01 05:19:07;;;;;;;4.78;2.78;;;;;;;17.45;87.61;99564.03;4263337;33;35942;-72
2022/08/01 05:21:54;;;;;;;5.25;2.45;;;;;;;18.12;85.18;99565.94;4260841;33;35557;-70
2022/08/01 05:24:46;;;;;;;5.75;3.00;;;;;;;18.28;84.37;99566.69;4262580;33;34203;-71
2022/08/01 05:27:40;;;;;;;5.32;2.83;;;;;;;18.27;84.37;99570.66;4257089;33;35309;-70
2022/08/01 05:30:27;;;;;;;5.78;2.60;;;;;;;18.36;82.31;99562.91;4257326;33;36015;-70
2022/08/01 05:33:14;;;;;;;4.00;2.35;;;;;;;18.69;81.76;99564.31;4252064;33;35655;-70
2022/08/01 05:36:00;;;;;;;4.57;2.65;;;;;;;18.40;83.43;99566.53;4262258;33;35208;-70
2022/08/01 05:38:46;;;;;;;6.18;2.30;;;;;;;18.82;80.58;99560.25;4260019;33;35613;-70
2022/08/01 05:41:33;;;;;;;4.22;2.50;;;;;;;18.85;80.26;99561.50;4265882;33;33876;-70
2022/08/01 05:44:19;;;;;;;4.75;2.60;;;;;;;18.65;81.72;99561.50;4257711;33;34726;-70
2022/08/01 05:47:05;;;;;;;4.05;2.40;;;;;;;18.78;80.08;99564.91;4264988;33;34155;-70
2022/08/01 05:49:52;;;;;;;4.93;2.53;;;;;;;19.19;79.09;99570.81;4262446;33;34632;-70
2022/08/01 05:52:38;;;;;;;3.17;2.25;;;;;;;19.20;77.25;99566.87;4264649;33;35047;-70
2022/08/01 05:55:24;;;;;;;4.80;2.35;;;;;;;19.74;75.41;99567.75;4263497;33;34829;-69
2022/08/01 05:58:11;;;;;;;5.22;2.20;;;;;;;19.29;76.90;99566.63;4264779;33;35003;-70
2022/08/01 06:00:58;;;;;;;3.65;2.40;;;;;;;19.85;76.16;99568.72;4267208;33;34277;-70
2022/08/01 06:03:45;;;;;;;5.10;2.22;;;;;;;20.05;72.94;99566.59;4256797;33;33834;-70
2022/08/01 06:06:31;;;;;;;4.25;2.28;;;;;;;20.31;73.17;99567.75;4247961;33;34611;-70
2022/08/01 06:09:17;;;;;;;4.50;2.50;;;;;;;20.60;71.81;99566.13;4258555;33;34863;-70
2022/08/01 06:12:04;;;;;;;3.12;2.30;;;;;;;20.15;72.73;99570.69;4266129;33;36252;-70
2022/08/01 06:14:50;;;;;;;6.72;2.45;;;;;;;20.71;71.26;99574.59;4267520;33;34598;-70
2022/08/01 06:17:36;;;;;;;5.12;2.60;;;;;;;20.58;71.01;99577.66;4265929;33;34710;-70
2022/08/01 06:20:23;;;;;;;7.55;2.45;;;;;;;20.44;72.69;99583.81;4268047;33;34116;-70
2022/08/01 06:23:09;;;;;;;3.80;2.08;;;;;;;20.55;71.72;99578.41;4261457;33;34683;-70
2022/08/01 06:26:19;;;;;;;7.40;2.70;;;;;;;21.01;69.74;99578.12;4263308;33;34917;-70
2022/08/01 06:29:05;;;;;;;5.18;2.45;;;;;;;20.69;70.96;99582.53;4253868;33;34780;-69
2022/08/01 06:31:55;;;;;;;4.68;2.30;;;;;;;20.72;70.73;99588.16;4262068;33;34397;-69
2022/08/01 06:34:41;;;;;;;6.22;2.60;;;;;;;20.66;70.61;99584.09;4262427;33;34408;-69
2022/08/01 06:37:31;;;;;;;3.05;2.45;;;;;;;20.93;69.97;99582.00;4261672;33;35758;-69
2022/08/01 06:40:17;;;;;;;4.35;2.87;;;;;;;20.70;72.34;99579.38;4263103;33;34372;-69
2022/08/01 06:43:04;;;;;;;3.67;2.37;;;;;;;20.83;71.21;99577.13;4249949;33;35040;-69
2022/08/01 06:45:50;;;;;;;3.65;2.37;;;;;;;21.07;70.99;99576.56;4260824;33;34681;-69
2022/08/01 06:48:39;;;;;;;3.90;2.47;;;;;;;21.48;67.30;99581.34;4266276;33;34837;-70
2022/08/01 06:51:25;;;;;;;6.10;2.20;;;;;;;21.26;69.16;99589.50;4257699;33;35462;-69
2022/08/01 06:54:11;;;;;;;2.60;1.95;;;;;;;21.28;67.25;99581.53;4261450;33;34938;-69
2022/08/01 06:56:57;;;;;;;5.47;2.55;;;;;;;21.73;65.77;99585.09;4258819;33;33571;-70
2022/08/01 06:59:44;;;;;;;5.53;2.22;;;;;;;21.67;66.08;99583.06;4266898;33;34974;-70
2022/08/01 07:02:40;;;;;;;4.57;2.33;;;;;;;21.67;64.34;99586.66;4262476;33;34283;-70
2022/08/01 07:05:27;;;;;;;5.03;2.12;;;;;;;22.23;62.64;99573.50;4266635;33;35154;-70
2022/08/01 07:08:13;;;;;;;4.12;2.00;;;;;;;22.25;62.73;99575.88;4250854;33;35651;-70
2022/08/01 07:11:00;;;;;;;4.62;2.10;;;;;;;22.42;62.06;99570.38;4259718;33;34938;-70
2022/08/01 07:13:46;;;;;;;5.53;2.10;;;;;;;22.63;60.46;99569.66;4264935;33;34212;-70
2022/08/01 07:16:33;;;;;;;5.90;2.20;;;;;;;22.94;58.97;99572.09;4261676;33;34148;-70
2022/08/01 07:19:19;;;;;;;3.40;2.05;;;;;;;22.84;58.92;99568.91;4266263;33;35663;-70
2022/08/01 07:22:05;;;;;;;3.28;2.17;;;;;;;23.09;58.15;99582.97;4264877;33;34868;-69
2022/08/01 07:24:52;;;;;;;5.65;2.00;;;;;;;22.99;56.84;99571.75;4265362;33;34504;-70
2022/08/01 07:27:40;;;;;;;3.50;2.22;;;;;;;23.53;56.41;99581.78;4261387;33;35133;-71
2022/08/01 07:30:26;;;;;;;3.47;2.30;;;;;;;23.93;54.01;99579.75;4251057;33;34438;-70
2022/08/01 07:33:12;;;;;;;3.87;2.40;;;;;;;23.58;53.97;99575.78;4259218;33;35781;-71
2022/08/01 07:35:59;;;;;;;6.15;2.22;;;;;;;23.65;54.80;99577.78;4263003;33;35442;-70
2022/08/01 07:38:45;;;;;;;6.85;3.10;;;;;;;24.38;53.98;99584.81;4266664;33;33638;-70
2022/08/01 07:41:31;;;;;;;5.15;2.20;;;;;;;24.11;52.23;99587.34;4263513;33;34646;-70
2022/08/01 07:44:38;;;;;;;5.57;2.10;;;;;;;23.85;54.15;99585.75;4257145;33;34951;-69
2022/08/01 07:47:25;;;;;;;3.60;2.15;;;;;;;23.93;51.56;99588.16;4263201;33;34756;-70
2022/08/01 07:50:12;;;;;;;4.80;2.37;;;;;;;23.79;51.71;99588.16;4255910;33;34917;-70
2022/08/01 07:52:58;;;;;;;3.10;2.15;;;;;;;24.18;51.33;99590.88;4260657;33;33619;-70
2022/08/01 07:55:45;;;;;;;5.28;2.20;;;;;;;24.33;51.28;99591.63;4262622;33;36065;-69
2022/08/01 07:58:33;;;;;;;3.50;2.12;;;;;;;24.14;51.54;99584.50;4244851;33;34586;-70
2022/08/01 08:01:19;;;;;;;6.20;2.15;;;;;;;23.92;51.53;99592.16;4256051;33;33873;-71
2022/08/01 08:04:06;;;;;;;3.37;2.05;;;;;;;24.44;49.54;99589.63;4257173;33;35501;-71
2022/08/01 08:06:53;;;;;;;3.53;2.20;;;;;;;24.56;49.16;99591.19;4259034;33;34787;-70
2022/08/01 08:09:39;;;;;;;2.40;2.00;;;;;;;24.05;49.59;99598.13;4262946;33;35742;-70
2022/08/01 08:12:26;;;;;;;7.55;2.60;;;;;;;23.34;50.78;99591.38;4257824;33;35208;-71
2022/08/01 08:15:15;;;;;;;3.53;2.15;;;;;;;23.58;50.98;99584.16;4258584;33;35166;-70
2022/08/01 08:18:03;;;;;;;3.42;2.12;;;;;;;24.00;50.32;99595.75;4265384;33;35909;-70
2022/08/01 08:20:49;;;;;;;5.85;2.30;;;;;;;23.69;52.32;99600.16;4264728;33;35819;-70
2022/08/01 08:26:41;;;;;;;4.90;2.45;;;;;;;23.81;53.21;99602.56;4266241;33;35389;-71
2022/08/01 08:29:32;;;;;;;6.00;2.58;;;;;;;23.94;51.92;99608.56;4261568;33;34648;-70
2022/08/01 08:32:18;;;;;;;3.65;2.22;;;;;;;23.61;53.90;99606.94;4267226;33;34717;-70
2022/08/01 08:35:05;;;;;;;4.25;2.50;;;;;;;23.83;53.99;99604.97;4259851;33;34123;-70
2022/08/01 08:37:52;;;;;;;4.05;2.30;;;;;;;23.63;52.90;99608.16;4257736;33;34242;-70
2022/08/01 08:40:44;;;;;;;5.62;2.25;;;;;;;23.82;52.24;99608.94;4263538;33;34934;-70
2022/08/01 08:43:30;;;;;;;3.67;2.28;;;;;;;23.85;52.41;99614.56;4259408;33;35139;-71
2022/08/01 08:46:17;;;;;;;4.72;2.33;;;;;;;23.64;52.55;99609.75;4265175;33;34116;-70
2022/08/01 08:49:25;;;;;;;3.70;2.60;;;;;;;23.92;52.59;99617.34;4258607;33;34696;-70
2022/08/01 08:52:21;;;;;;;3.92;2.45;;;;;;;23.77;51.80;99613.75;4252597;33;35491;-70
2022/08/01 08:55:08;;;;;;;3.45;2.37;;;;;;;23.71;51.95;99615.38;4260725;33;34723;-70
2022/08/01 08:57:55;;;;;;;5.60;2.50;;;;;;;23.40;51.93;99616.16;4255774;33;33940;-70
2022/08/01 09:00:41;;;;;;;4.55;2.40;;;;;;;24.01;50.79;99623.31;4247912;33;35638;-70
2022/08/01 09:03:33;;;;;;;4.12;2.65;;;;;;;23.68;51.37;99620.91;4261925;33;35056;-70
2022/08/01 09:06:19;;;;;;;4.78;2.45;;;;;;;24.01;48.91;99623.31;4259638;33;34713;-70
2022/08/01 09:09:06;;;;;;;3.80;2.50;;;;;;;23.92;49.51;99613.75;4255559;33;35097;-71
2022/08/01 09:11:54;;;;;;;5.57;2.20;;;;;;;24.35;48.52;99622.03;4263960;33;34619;-70
2022/08/01 09:14:47;;;;;;;5.45;2.67;;;;;;;23.80;49.50;99617.75;4253694;33;36120;-71
2022/08/01 09:17:41;;;;;;;4.75;3.10;;;;;;;24.44;49.40;99628.03;4263399;33;34382;-70
2022/08/01 09:20:29;;;;;;;5.53;2.95;;;;;;;24.31;49.65;99626.87;4266026;33;34009;-70
2022/08/01 09:23:32;;;;;;;7.35;2.60;;;;;;;24.55;47.68;99623.19;4266876;33;34660;-71
2022/08/01 09:26:30;;;;;;;3.95;2.60;;;;;;;24.77;47.84;99623.91;4265078;33;35702;-70
2022/08/01 09:29:22;;;;;;;4.22;2.58;;;;;;;24.40;47.04;99616.03;4263291;33;34682;-70
2022/08/01 09:32:22;;;;;;;4.60;2.70;;;;;;;25.08;45.91;99622.13;4250055;33;34263;-71
2022/08/01 09:35:23;;;;;;;4.35;2.95;;;;;;;24.59;48.77;99618.41;4257126;33;34374;-70
2022/08/01 09:38:18;;;;;;;4.20;2.90;;;;;;;24.84;47.58;99609.84;4261617;33;35067;-70
2022/08/01 09:41:07;;;;;;;6.87;2.92;;;;;;;24.80;47.82;99613.91;4259435;33;34603;-70
2022/08/01 09:43:53;;;;;;;4.75;2.85;;;;;;;24.97;46.43;99609.41;4263974;33;34355;-70
2022/08/01 09:46:59;;;;;;;4.22;2.80;;;;;;;25.00;46.69;99616.97;4262784;33;35682;-70
2022/08/01 09:49:55;;;;;;;4.40;3.08;;;;;;;25.00;45.67;99608.56;4267044;33;35034;-70
2022/08/01 09:52:53;;;;;;;3.92;3.30;;;;;;;25.90;44.87;99608.72;4254905;33;35581;-69
2022/08/01 09:55:40;;;;;;;4.97;3.37;;;;;;;26.09;43.58;99602.50;4257193;33;34186;-70
2022/08/01 09:58:26;;;;;;;5.07;3.47;;;;;;;25.95;44.16;99597.03;4263638;33;34741;-70
2022/08/01 10:01:12;;;;;;;4.87;3.92;;;;;;;26.01;44.42;99610.22;4261364;33;35091;-70
2022/08/01 10:04:08;;;;;;;5.25;3.60;;;;;;;26.59;43.21;99609.59;4268042;33;34614;-70
2022/08/01 10:07:05;;;;;;;5.85;3.92;;;;;;;26.51;43.28;99602.47;4259665;33;35099;-71
2022/08/01 10:09:52;;;;;;;4.85;4.07;;;;;;;26.23;43.57;99604.37;4258019;33;34740;-71
2022/08/01 10:12:42;;;;;;;5.20;4.20;;;;;;;26.50;41.62;99603.63;4261545;33;34926;-71
2022/08/01 10:15:31;;;;;;;5.80;4.00;;;;;;;26.59;41.99;99599.16;4257473;33;34484;-70
2022/08/01 10:18:22;;;;;;;4.68;3.78;;;;;;;26.79;40.78;99595.69;4257042;33;35044;-69
2022/08/01 10:21:11;;;;;;;4.57;3.67;;;;;;;26.26;43.54;99603.53;4257705;33;35556;-71
2022/08/01 10:23:58;;;;;;;6.25;4.10;;;;;;;26.57;42.79;99606.41;4256675;33;34609;-70
2022/08/01 10:26:51;;;;;;;7.30;3.92;;;;;;;26.50;42.39;99601.69;4262431;33;35599;-70
2022/08/01 10:29:42;;;;;;;5.20;4.07;;;;;;;26.83;41.03;99600.03;4268478;33;34232;-71
2022/08/01 10:32:52;;;;;;;6.62;4.15;;;;;;;26.45;42.28;99600.09;4256212;33;35689;-70
2022/08/01 10:35:40;;;;;;;7.63;3.90;;;;;;;26.73;40.92;99598.19;4260491;33;34879;-71
2022/08/01 10:38:34;;;;;;;3.90;3.50;;;;;;;27.21;40.04;99593.47;4252717;33;34594;-71
2022/08/01 10:41:22;;;;;;;5.20;3.60;;;;;;;27.24;40.13;99584.22;4259749;33;34113;-70
2022/08/01 10:44:09;;;;;;;4.45;3.58;;;;;;;27.27;39.91;99581.34;4247171;33;35636;-71
2022/08/01 10:47:10;;;;;;;8.50;4.05;;;;;;;27.31;39.15;99582.06;4255191;33;34523;-70
2022/08/01 10:50:39;;;;;;;5.37;3.97;;;;;;;27.44;39.73;99587.91;4259399;33;35521;-70
2022/08/01 10:53:26;;;;;;;4.53;3.72;;;;;;;26.60;41.57;99588.69;4264743;33;33848;-72
2022/08/01 10:56:39;;;;;;;4.80;3.60;;;;;;;26.71;42.53;99578.12;4261288;33;34402;-71
2022/08/01 10:59:29;;;;;;;5.95;3.65;;;;;;;26.73;39.62;99586.16;4251770;33;35966;-70
2022/08/01 11:02:40;;;;;;;4.95;3.80;;;;;;;26.69;39.44;99569.31;4262094;33;35857;-71
2022/08/01 11:05:32;;;;;;;6.43;3.97;;;;;;;27.21;39.67;99566.19;4263200;33;34247;-71
2022/08/01 11:08:23;;;;;;;5.40;3.53;;;;;;;27.16;40.57;99572.28;4259552;33;34636;-72
2022/08/01 11:11:09;;;;;;;7.37;3.80;;;;;;;27.55;38.54;99568.00;4261582;33;35976;-71
2022/08/01 11:14:07;;;;;;;7.32;3.62;;;;;;;27.88;37.99;99571.88;4252679;33;34003;-71
2022/08/01 11:16:56;;;;;;;5.57;4.20;;;;;;;28.39;38.56;99582.97;4259425;33;34357;-71
2022/08/01 11:20:05;;;;;;;5.12;3.85;;;;;;;28.22;38.17;99570.84;4254006;33;34638;-71
2022/08/01 11:23:03;;;;;;;5.75;3.50;;;;;;;28.52;37.20;99566.22;4257680;33;34688;-71
2022/08/01 11:25:52;;;;;;;4.37;3.30;;;;;;;28.96;36.82;99549.94;4265405;33;34630;-72
2022/08/01 11:29:13;;;;;;;4.72;3.10;;;;;;;28.17;36.60;99557.25;4258518;33;34963;-75
2022/08/01 11:32:49;;;;;;;4.22;2.97;;;;;;;27.96;35.21;99552.84;4253420;33;34668;-70
2022/08/01 11:36:11;;;;;;;3.42;2.90;;;;;;;28.05;35.57;99561.50;4253085;33;34612;-70
2022/08/01 11:38:57;;;;;;;4.97;3.00;;;;;;;27.95;35.11;99556.88;4262935;33;34718;-69
2022/08/01 11:41:45;;;;;;;4.62;3.17;;;;;;;27.50;36.01;99557.25;4260415;33;34115;-70
2022/08/01 11:44:50;;;;;;;3.65;2.95;;;;;;;27.38;36.99;99555.88;4257222;33;34602;-70
2022/08/01 11:47:47;;;;;;;4.25;2.90;;;;;;;27.40;37.63;99546.97;4268465;33;34971;-70
2022/08/01 11:50:36;;;;;;;4.55;2.80;;;;;;;27.68;36.04;99537.25;4259287;33;34684;-70
2022/08/01 11:53:23;;;;;;;4.90;3.30;;;;;;;28.08;35.25;99552.19;4269480;33;34846;-69
2022/08/01 11:56:12;;;;;;;5.80;3.97;;;;;;;27.60;37.09;99542.19;4264036;33;34697;-69
2022/08/01 11:59:02;;;;;;;5.05;3.42;;;;;;;28.07;36.65;99549.81;4258193;33;36075;-70
2022/08/01 12:01:49;;;;;;;5.32;3.58;;;;;;;28.67;35.25;99553.41;4267081;33;34553;-70
2022/08/01 12:04:50;;;;;;;4.78;3.33;;;;;;;28.84;35.31;99548.59;4267283;33;34765;-70
2022/08/01 12:07:36;;;;;;;5.45;3.40;;;;;;;27.79;36.23;99555.56;4262480;33;35114;-69
2022/08/01 12:10:25;;;;;;;4.60;3.20;;;;;;;27.89;35.50;99548.16;4254319;33;36047;-70
2022/08/01 12:13:11;;;;;;;6.87;3.78;;;;;;;28.79;33.70;99557.59;4263435;33;34877;-69
2022/08/01 12:16:07;;;;;;;5.15;3.10;;;;;;;28.84;33.04;99557.06;4259493;33;34028;-69
2022/08/01 12:18:53;;;;;;;4.93;3.08;;;;;;;28.87;33.90;99561.81;4260222;33;34639;-69
2022/08/01 12:21:39;;;;;;;5.07;2.87;;;;;;;28.55;33.53;99566.16;4265762;33;34712;-69
2022/08/01 12:24:26;;;;;;;4.55;2.92;;;;;;;29.06;32.68;99557.38;4260268;33;33578;-70
2022/08/01 12:27:24;;;;;;;3.97;3.12;;;;;;;28.78;34.70;99550.38;4260376;33;34272;-69
2022/08/01 12:30:24;;;;;;;5.22;3.62;;;;;;;28.87;34.06;99551.34;4257088;33;34598;-70
2022/08/01 12:33:11;;;;;;;;;;;;;;;28.14;35.90;99549.66;4261389;33;34899;-70
2022/08/01 12:35:58;;;;;;;4.05;2.67;;;;;;;27.67;36.75;99550.53;4254544;33;34462;-70
2022/08/01 12:38:44;;;;;;;3.28;2.55;;;;;;;28.05;34.96;99547.44;4256194;33;34048;-69
2022/08/01 12:41:32;;;;;;;3.97;2.47;;;;;;;27.76;36.00;99547.94;4265064;33;34249;-69
2022/08/01 12:44:18;;;;;;;4.47;2.25;;;;;;;28.58;33.77;99542.75;4248153;33;34977;-69
2022/08/01 12:47:08;;;;;;;3.47;2.70;;;;;;;28.79;33.13;99546.31;4257149;33;35628;-69
2022/08/01 12:49:54;;;;;;;4.62;3.40;;;;;;;28.70;34.31;99542.06;4245580;33;37784;-69
2022/08/01 12:52:41;;;;;;;4.43;2.80;;;;;;;29.49;33.88;99540.19;4263609;33;35263;-70
2022/08/01 12:55:27;;;;;;;4.30;3.33;;;;;;;29.84;33.21;99534.88;4259233;33;35063;-70
2022/08/01 12:58:19;;;;;;;7.80;3.45;;;;;;;29.20;33.50;99528.03;4257673;33;35412;-70
2022/08/01 13:01:08;;;;;;;4.78;3.37;;;;;;;28.93;34.76;99541.13;4262309;33;35658;-70
2022/08/01 13:04:04;;;;;;;3.85;3.33;;;;;;;29.70;34.36;99533.22;4253435;33;34047;-70
2022/08/01 13:06:53;;;;;;;6.20;4.00;;;;;;;30.56;32.40;99533.63;4264932;33;34633;-69
2022/08/01 13:09:49;;;;;;;4.25;3.08;;;;;;;30.63;31.91;99529.81;4250981;33;34525;-70
2022/08/01 13:12:36;;;;;;;3.22;2.83;;;;;;;30.65;32.77;99530.13;4256684;33;33336;-70
2022/08/01 13:15:34;;;;;;;3.75;2.70;;;;;;;31.21;31.12;99523.91;4247979;33;35554;-71
2022/08/01 13:18:32;;;;;;;5.80;2.65;;;;;;;30.12;31.74;99524.00;4266783;33;35059;-70
2022/08/01 13:21:38;;;;;;;3.97;2.90;;;;;;;30.08;32.60;99526.13;4255938;33;34716;-69
2022/08/01 13:24:40;;;;;;;3.70;2.90;;;;;;;29.81;32.65;99518.81;4256956;33;34138;-69
2022/08/01 13:27:29;;;;;;;4.03;2.78;;;;;;;29.83;31.89;99524.00;4254792;33;33575;-70